Time;durP1;ratioP1;P1;durP2;ratioP2;P2;SDS_P1;SDS_P2;PMS_P1;PMS_P2;Temp;Humidity;BMP_temperature;BMP_pressure;BME280_temperature;BME280_humidity;BME280_pressure;Samples;Min_cycle;Max_cycle;Signal;HPM_P1;HPM_P2
2022/07/04 00:01:32;;;;;;;2.80;2.60;;;;;;;21.38;70.64;101245.31;4997125;28;102056;-46
2022/07/04 00:03:58;;;;;;;2.67;2.47;;;;;;;21.39;70.62;101243.41;4995107;28;102111;-49
2022/07/04 00:06:26;;;;;;;2.83;2.63;;;;;;;21.38;70.59;101231.47;4996998;28;101988;-46
2022/07/04 00:08:52;;;;;;;2.53;2.33;;;;;;;21.39;70.83;101237.84;4993695;28;104077;-47
2022/07/04 00:11:20;;;;;;;2.40;2.20;;;;;;;21.38;70.66;101238.97;4996363;28;102382;-49
2022/07/04 00:13:47;;;;;;;2.83;2.50;;;;;;;21.38;70.69;101236.22;4990921;28;102111;-47
2022/07/04 00:16:14;;;;;;;2.78;2.58;;;;;;;21.38;70.61;101230.66;4997606;28;102407;-46
2022/07/04 00:18:40;;;;;;;2.75;2.55;;;;;;;21.38;70.60;101233.44;4995729;28;103848;-47
2022/07/04 00:21:08;;;;;;;2.67;2.47;;;;;;;21.39;70.62;101237.84;4996767;28;102039;-46
2022/07/04 00:23:35;;;;;;;2.50;2.30;;;;;;;21.39;70.44;101243.41;4994882;28;102274;-47
2022/07/04 00:26:02;;;;;;;2.55;2.35;;;;;;;21.39;70.52;101232.31;4997220;28;102563;-46
2022/07/04 00:28:30;;;;;;;2.67;2.47;;;;;;;21.39;70.43;101232.31;4994316;28;104077;-48
2022/07/04 00:30:56;;;;;;;3.33;2.50;;;;;;;21.38;70.67;101242.56;4996425;28;103972;-46
2022/07/04 00:33:23;;;;;;;3.67;2.53;;;;;;;21.38;70.62;101231.47;4994266;28;102204;-47
2022/07/04 00:35:49;;;;;;;2.60;2.40;;;;;;;21.39;70.61;101240.63;4996314;28;102107;-47
2022/07/04 00:38:16;;;;;;;2.60;2.40;;;;;;;21.39;70.44;101229.53;4995650;28;103894;-49
2022/07/04 00:40:43;;;;;;;3.35;2.70;;;;;;;21.38;70.36;101238.97;4996483;28;102477;-50
2022/07/04 00:43:10;;;;;;;2.40;2.20;;;;;;;21.39;70.44;101227.59;4994162;28;102050;-48
2022/07/04 00:45:38;;;;;;;3.15;2.85;;;;;;;21.38;70.42;101230.66;4996744;28;105279;-47
2022/07/04 00:48:05;;;;;;;2.80;2.60;;;;;;;21.39;70.64;101237.84;4995391;28;104114;-46
2022/07/04 00:50:32;;;;;;;2.50;2.30;;;;;;;21.38;70.58;101239.78;4995872;28;102322;-48
2022/07/04 00:53:00;;;;;;;2.70;2.50;;;;;;;21.39;70.43;101248.94;4993481;28;102384;-46
2022/07/04 00:55:27;;;;;;;2.83;2.55;;;;;;;21.38;70.61;101261.94;4995288;28;102130;-46
2022/07/04 00:57:54;;;;;;;2.42;2.08;;;;;;;21.39;70.39;101279.38;4993791;28;104166;-47
2022/07/04 01:00:20;;;;;;;3.50;2.88;;;;;;;21.39;70.43;101284.91;4994688;28;102135;-46
2022/07/04 01:02:49;;;;;;;2.65;2.22;;;;;;;21.41;70.47;101285.38;4993285;28;102297;-49
2022/07/04 01:05:16;;;;;;;2.58;2.38;;;;;;;21.40;70.60;101281.00;4996177;28;102289;-46
2022/07/04 01:07:43;;;;;;;2.70;2.50;;;;;;;21.39;70.71;101269.13;4995005;28;103959;-46
2022/07/04 01:10:10;;;;;;;3.78;2.25;;;;;;;21.39;70.59;101265.53;4982658;28;102130;-49
2022/07/04 01:12:37;;;;;;;2.40;2.20;;;;;;;21.38;70.49;101281.31;4994092;28;102484;-47
2022/07/04 01:15:05;;;;;;;3.00;2.20;;;;;;;21.39;70.62;101282.16;4996091;28;102509;-47
2022/07/04 01:17:32;;;;;;;2.30;2.10;;;;;;;21.38;70.42;101278.53;4994231;28;104092;-47
2022/07/04 01:20:00;;;;;;;2.60;2.40;;;;;;;21.38;70.50;101274.97;4994688;28;102440;-46
2022/07/04 01:22:28;;;;;;;3.43;2.50;;;;;;;21.38;70.50;101281.31;4994344;28;104926;-47
2022/07/04 01:24:54;;;;;;;2.87;2.67;;;;;;;21.39;70.62;101276.63;4995534;28;103880;-47
2022/07/04 01:27:21;;;;;;;3.15;2.85;;;;;;;21.38;70.80;101263.91;4994363;28;103888;-50
2022/07/04 01:29:47;;;;;;;2.85;2.65;;;;;;;21.38;70.55;101263.91;4993764;28;102173;-48
2022/07/04 01:32:14;;;;;;;4.25;3.13;;;;;;;21.38;70.65;101261.13;4994986;28;102019;-49
2022/07/04 01:34:41;;;;;;;2.60;2.40;;;;;;;21.38;70.41;101264.69;4995721;28;102515;-49
2022/07/04 01:37:07;;;;;;;3.03;2.45;;;;;;;21.37;70.36;101257.53;4994675;28;103605;-50
2022/07/04 01:39:37;;;;;;;2.85;2.63;;;;;;;21.39;70.61;101262.78;4992520;28;102088;-48
2022/07/04 01:42:04;;;;;;;3.20;3.00;;;;;;;21.38;70.35;101266.66;4994386;28;102146;-50
2022/07/04 01:44:32;;;;;;;2.92;2.50;;;;;;;21.38;70.53;101259.16;4995927;28;102358;-48
2022/07/04 01:46:58;;;;;;;2.90;2.58;;;;;;;21.38;70.64;101258.34;4993576;28;104052;-46
2022/07/04 01:49:25;;;;;;;2.70;2.50;;;;;;;21.38;70.42;101259.16;4994521;28;102622;-48
2022/07/04 01:51:52;;;;;;;3.30;2.40;;;;;;;21.38;70.31;101267.47;4994489;28;102528;-48
2022/07/04 01:54:20;;;;;;;2.72;2.53;;;;;;;21.38;70.54;101259.16;4993925;28;102708;-50
2022/07/04 01:56:48;;;;;;;2.88;2.67;;;;;;;21.38;70.44;101263.91;4995076;28;103816;-47
2022/07/04 01:59:14;;;;;;;3.20;2.80;;;;;;;21.38;70.63;101263.91;4991511;28;102353;-46
2022/07/04 02:01:41;;;;;;;2.63;2.42;;;;;;;21.37;70.40;101265.03;4994760;28;102340;-48
2022/07/04 02:04:08;;;;;;;4.03;2.53;;;;;;;21.38;70.45;101270.25;4994976;28;102166;-48
2022/07/04 02:06:35;;;;;;;3.22;2.90;;;;;;;21.38;70.32;101274.97;4982710;28;103901;-46
2022/07/04 02:09:17;;;;;;;3.30;3.03;;;;;;;21.38;70.44;101269.44;4993801;28;102621;-47
2022/07/04 02:14:33;;;;;;;2.95;2.72;;;;;;;21.39;70.48;101279.38;4994896;28;102036;-48
2022/07/04 02:17:00;;;;;;;3.63;2.75;;;;;;;21.38;70.34;101281.31;4994203;28;103969;-48
2022/07/04 02:19:27;;;;;;;3.85;2.65;;;;;;;21.38;70.64;101286.03;4993859;28;102294;-48
2022/07/04 02:21:58;;;;;;;3.47;2.85;;;;;;;21.38;70.60;101284.09;4994356;28;102101;-47
2022/07/04 02:24:25;;;;;;;3.25;2.60;;;;;;;21.38;70.25;101284.09;4994547;28;102337;-49
2022/07/04 02:26:53;;;;;;;4.45;3.33;;;;;;;21.37;70.46;101289.97;4993471;28;104215;-48
2022/07/04 02:29:20;;;;;;;3.00;2.80;;;;;;;21.38;70.29;101291.59;4993323;28;102221;-49
2022/07/04 02:31:46;;;;;;;3.47;3.05;;;;;;;21.38;70.44;101291.59;4995005;28;102420;-48
2022/07/04 02:34:13;;;;;;;4.35;3.17;;;;;;;21.38;70.33;101292.38;4998396;28;102229;-47
2022/07/04 02:36:39;;;;;;;3.75;3.10;;;;;;;21.37;70.23;101301.84;4997021;28;103845;-49
2022/07/04 02:39:06;;;;;;;3.97;3.35;;;;;;;21.38;70.13;101297.13;4997674;28;102206;-48
2022/07/04 02:41:33;;;;;;;4.25;3.13;;;;;;;21.38;70.22;101291.59;4996838;28;102252;-49
2022/07/04 02:44:01;;;;;;;3.45;3.15;;;;;;;21.38;70.25;101297.13;4998121;28;102585;-47
2022/07/04 02:46:28;;;;;;;3.30;3.03;;;;;;;21.38;70.20;101291.59;4997099;28;103851;-47
2022/07/04 02:48:55;;;;;;;3.70;3.40;;;;;;;21.38;70.06;101286.03;4997137;28;102502;-46
2022/07/04 02:51:22;;;;;;;3.97;3.47;;;;;;;21.37;70.06;101284.44;4997446;28;102131;-49
2022/07/04 02:53:50;;;;;;;5.18;3.53;;;;;;;21.38;69.81;101286.03;4997568;28;102516;-47
2022/07/04 02:56:16;;;;;;;5.10;3.60;;;;;;;21.38;70.22;101286.03;4996382;28;103691;-49
2022/07/04 02:58:43;;;;;;;4.15;3.75;;;;;;;21.38;69.99;101288.81;4996750;28;102539;-48
2022/07/04 03:01:12;;;;;;;4.45;4.15;;;;;;;21.35;70.15;101277.28;4996285;28;104151;-49
2022/07/04 03:03:39;;;;;;;4.60;3.35;;;;;;;21.36;70.15;101278.09;4987749;28;102153;-46
2022/07/04 03:06:08;;;;;;;5.53;4.38;;;;;;;21.37;70.23;101274.16;4993951;28;103928;-49
2022/07/04 03:08:35;;;;;;;4.20;3.80;;;;;;;21.38;70.19;101280.50;4996776;28;102197;-49
2022/07/04 03:11:02;;;;;;;4.40;3.90;;;;;;;21.38;70.10;101280.50;4996631;28;102091;-49
2022/07/04 03:13:28;;;;;;;4.30;3.90;;;;;;;21.38;70.22;101284.09;4998049;28;102635;-48
2022/07/04 03:15:55;;;;;;;4.60;4.10;;;;;;;21.38;70.34;101286.84;4997132;28;103948;-48
2022/07/04 03:18:24;;;;;;;4.20;3.80;;;;;;;21.37;70.26;101293.53;4996991;28;102751;-47
2022/07/04 03:20:50;;;;;;;4.10;3.80;;;;;;;21.38;70.16;101283.28;4997431;28;102161;-48
2022/07/04 03:23:17;;;;;;;5.65;4.13;;;;;;;21.38;70.46;101280.50;4997413;28;102575;-47
2022/07/04 03:25:44;;;;;;;3.85;3.55;;;;;;;21.37;70.13;101284.44;4996601;28;103948;-48
2022/07/04 03:28:11;;;;;;;4.07;3.70;;;;;;;21.37;70.13;101281.66;4995704;28;101976;-47
2022/07/04 03:30:37;;;;;;;5.07;3.55;;;;;;;21.37;70.24;101278.88;4996390;28;102189;-47
2022/07/04 03:33:04;;;;;;;9.02;3.85;;;;;;;21.36;70.28;101278.09;4996428;28;102272;-48
2022/07/04 03:35:32;;;;;;;4.20;3.80;;;;;;;21.36;69.92;101278.09;4995750;28;104030;-48
2022/07/04 03:37:59;;;;;;;5.80;4.00;;;;;;;21.36;70.41;101267.00;4979317;28;102325;-47
2022/07/04 03:40:30;;;;;;;4.93;3.28;;;;;;;21.36;70.06;101267.00;4996304;28;102045;-49
2022/07/04 03:42:58;;;;;;;4.50;4.00;;;;;;;21.35;70.15;101271.75;4995950;28;102295;-48
2022/07/04 03:45:25;;;;;;;4.00;3.60;;;;;;;21.37;70.30;101278.88;4996506;28;104003;-49
2022/07/04 03:47:52;;;;;;;3.90;3.60;;;;;;;21.37;70.29;101284.44;4995621;28;102262;-49
2022/07/04 03:50:18;;;;;;;5.38;3.95;;;;;;;21.35;70.36;101282.81;4996698;28;102612;-47
2022/07/04 03:52:46;;;;;;;4.15;3.75;;;;;;;21.35;70.37;101288.34;4987653;28;102593;-49
2022/07/04 03:55:13;;;;;;;3.83;3.47;;;;;;;21.37;70.41;101281.66;4995991;28;104061;-47
2022/07/04 03:57:39;;;;;;;4.55;3.45;;;;;;;21.37;70.55;101284.44;4995453;28;102220;-47
2022/07/04 04:00:07;;;;;;;6.43;3.60;;;;;;;21.36;70.29;101283.63;4996654;28;102313;-49
2022/07/04 04:02:34;;;;;;;8.10;3.83;;;;;;;21.35;70.38;101288.34;4996155;28;102398;-46
2022/07/04 04:07:48;;;;;;;4.68;4.22;;;;;;;21.35;70.16;101296.66;4997099;28;102175;-48
2022/07/04 04:10:14;;;;;;;4.80;4.10;;;;;;;21.35;70.62;101309.69;4995632;28;102315;-48
2022/07/04 04:12:41;;;;;;;5.15;3.85;;;;;;;21.37;70.32;101326.75;4997279;28;102178;-48
2022/07/04 04:15:08;;;;;;;4.95;3.80;;;;;;;21.37;70.46;101356.41;4994770;28;104128;-49
2022/07/04 04:17:35;;;;;;;3.97;3.58;;;;;;;21.38;70.32;101377.41;4995231;28;102500;-49
2022/07/04 04:20:02;;;;;;;4.18;3.88;;;;;;;21.35;70.15;101398.28;4995271;28;102290;-46
2022/07/04 04:22:29;;;;;;;6.93;3.88;;;;;;;21.35;70.45;101404.63;4997047;28;102451;-48
2022/07/04 04:24:58;;;;;;;6.18;3.63;;;;;;;21.35;70.27;101414.91;4995303;28;103979;-48
2022/07/04 04:27:24;;;;;;;5.60;3.30;;;;;;;21.32;70.43;101427.41;4995496;28;102272;-46
2022/07/04 04:29:51;;;;;;;10.40;3.83;;;;;;;21.31;70.63;101425.78;4995272;28;102250;-48
2022/07/04 04:32:17;;;;;;;3.92;3.40;;;;;;;21.29;70.32;101400.38;4995508;28;102476;-46
2022/07/04 04:34:44;;;;;;;3.70;3.15;;;;;;;21.29;70.53;101372.69;4994228;28;103978;-47
2022/07/04 04:37:11;;;;;;;5.50;3.58;;;;;;;21.25;69.87;101332.97;4996110;28;102126;-46
2022/07/04 04:39:39;;;;;;;5.30;3.35;;;;;;;21.24;68.58;101311.13;4996291;28;102282;-49
2022/07/04 04:42:07;;;;;;;8.00;3.13;;;;;;;21.22;69.25;101308.69;4997610;28;102416;-47
2022/07/04 04:44:33;;;;;;;6.32;2.90;;;;;;;21.22;69.42;101305.94;4994803;28;103924;-47
2022/07/04 04:47:00;;;;;;;7.18;3.00;;;;;;;21.21;70.16;101307.06;4995028;28;102049;-48
2022/07/04 04:49:26;;;;;;;5.63;3.25;;;;;;;21.20;69.66;101304.63;4995858;28;102411;-48
2022/07/04 04:51:53;;;;;;;7.82;4.68;;;;;;;21.19;70.13;101303.81;4996353;28;102662;-47
2022/07/04 04:54:20;;;;;;;8.35;4.55;;;;;;;21.18;70.61;101288.34;4993901;28;104742;-46
2022/07/04 04:56:47;;;;;;;6.55;3.90;;;;;;;21.17;69.78;101291.44;4994434;28;102416;-46
2022/07/04 04:59:15;;;;;;;5.35;3.70;;;;;;;21.18;70.55;101287.56;4995406;28;102946;-46
2022/07/04 05:01:42;;;;;;;6.00;3.27;;;;;;;21.18;70.36;101293.09;4995335;28;102103;-46
2022/07/04 05:04:08;;;;;;;6.07;3.67;;;;;;;21.19;70.32;101286.41;4994883;28;103939;-47
2022/07/04 05:06:35;;;;;;;6.13;3.40;;;;;;;21.17;70.43;101281.19;4996922;28;102252;-46
2022/07/04 05:09:02;;;;;;;6.65;3.03;;;;;;;21.17;70.32;101274.84;4994245;28;102493;-49
2022/07/04 05:11:28;;;;;;;6.25;2.97;;;;;;;21.18;70.11;101282.00;4996678;28;102501;-47
2022/07/04 05:13:55;;;;;;;4.82;3.13;;;;;;;21.19;70.41;101291.94;4994885;28;104262;-47
2022/07/04 05:16:23;;;;;;;5.03;3.00;;;;;;;21.19;70.58;101301.03;4995191;28;102306;-48
2022/07/04 05:18:49;;;;;;;6.87;2.83;;;;;;;21.20;70.56;101301.84;4993386;28;102421;-46
2022/07/04 05:21:16;;;;;;;4.15;3.17;;;;;;;21.21;70.41;101315.38;4994816;28;102678;-47
2022/07/04 05:23:42;;;;;;;5.45;3.67;;;;;;;21.22;70.48;101324.50;4992115;28;103841;-47
2022/07/04 05:26:09;;;;;;;4.05;3.70;;;;;;;21.23;70.39;101318.63;4994907;28;103482;-47
2022/07/04 05:28:36;;;;;;;4.05;3.20;;;;;;;21.24;70.45;101303.66;4992724;28;102269;-49
2022/07/04 05:31:06;;;;;;;4.75;3.45;;;;;;;21.24;70.53;101297.28;4996307;28;102264;-47
2022/07/04 05:33:34;;;;;;;4.45;3.33;;;;;;;21.24;70.54;101295.34;4993606;28;103960;-48
2022/07/04 05:36:01;;;;;;;4.35;3.28;;;;;;;21.24;70.71;101292.59;4994405;28;102364;-48
2022/07/04 05:38:28;;;;;;;3.83;3.42;;;;;;;21.25;70.45;101316.34;4995436;28;102333;-48
2022/07/04 05:40:54;;;;;;;3.80;3.50;;;;;;;21.25;70.64;101308.03;4996517;28;102271;-48
2022/07/04 05:43:25;;;;;;;4.90;3.53;;;;;;;21.25;70.52;101291.44;4995383;28;104087;-47
2022/07/04 05:45:51;;;;;;;4.07;3.45;;;;;;;21.24;70.38;101281.50;4992652;28;101970;-46
2022/07/04 05:48:19;;;;;;;4.03;3.63;;;;;;;21.27;70.57;101278.06;4972997;28;102768;-47
2022/07/04 05:50:47;;;;;;;6.45;3.33;;;;;;;21.28;70.45;101271.41;4989642;28;102471;-49
2022/07/04 05:53:13;;;;;;;3.53;3.23;;;;;;;21.37;69.52;101267.81;4991452;28;105587;-47
2022/07/04 05:55:40;;;;;;;4.65;3.13;;;;;;;21.40;70.25;101279.03;4995723;28;102013;-49
2022/07/04 05:58:06;;;;;;;3.20;2.90;;;;;;;21.44;70.13;101279.19;4995715;28;101961;-49
2022/07/04 06:00:34;;;;;;;4.05;3.10;;;;;;;21.47;70.23;101268.25;4997120;28;102225;-46
2022/07/04 06:03:00;;;;;;;2.88;2.60;;;;;;;21.54;70.10;101267.75;4995152;28;103901;-48
2022/07/04 06:05:27;;;;;;;3.35;3.05;;;;;;;21.57;70.06;101269.88;4995750;28;102411;-46
2022/07/04 06:07:55;;;;;;;5.28;3.80;;;;;;;21.62;69.99;101269.66;4999085;28;102332;-47
2022/07/04 06:10:22;;;;;;;3.40;3.08;;;;;;;21.65;70.03;101257.94;4999094;28;102126;-46
2022/07/04 06:12:49;;;;;;;3.88;2.80;;;;;;;21.70;69.85;101249.41;4998821;28;104133;-47
2022/07/04 06:15:15;;;;;;;3.13;2.58;;;;;;;21.72;69.79;101252.69;4997428;28;102166;-47
2022/07/04 06:17:42;;;;;;;4.72;2.92;;;;;;;21.74;69.62;101255.91;4994597;28;103593;-46
2022/07/04 06:20:10;;;;;;;3.88;3.38;;;;;;;21.74;69.95;101261.44;4996713;28;103075;-46
2022/07/04 06:22:40;;;;;;;3.70;2.67;;;;;;;21.75;69.79;101260.31;4998462;28;104046;-47
2022/07/04 06:25:10;;;;;;;4.85;2.95;;;;;;;21.76;69.71;101252.81;4998770;28;102248;-47
2022/07/04 06:27:37;;;;;;;4.20;2.67;;;;;;;21.79;69.79;101246.63;4998919;28;102388;-47
2022/07/04 06:30:05;;;;;;;5.53;3.53;;;;;;;21.81;69.61;101249.84;4999689;28;102104;-49
2022/07/04 06:32:41;;;;;;;4.38;2.60;;;;;;;21.79;69.83;101250.19;4998293;28;103848;-47
2022/07/04 06:37:54;;;;;;;3.28;2.72;;;;;;;21.78;69.93;101251.34;4995432;28;102524;-46
2022/07/04 06:40:22;;;;;;;3.40;3.10;;;;;;;21.80;69.89;101243.50;4999316;28;102033;-46
2022/07/04 06:42:49;;;;;;;3.45;2.72;;;;;;;21.80;69.98;101243.50;4997668;28;103913;-49
2022/07/04 06:45:16;;;;;;;3.97;3.10;;;;;;;21.81;70.08;101244.31;4998525;28;101931;-49
2022/07/04 06:47:42;;;;;;;3.30;3.00;;;;;;;21.81;69.89;101227.69;4993792;28;102649;-47
2022/07/04 06:50:09;;;;;;;2.95;2.75;;;;;;;21.81;70.02;101236.00;4999923;28;102324;-48
2022/07/04 06:52:36;;;;;;;3.30;3.00;;;;;;;21.81;69.79;101228.50;4988811;28;103859;-47
2022/07/04 06:55:03;;;;;;;3.90;2.92;;;;;;;21.82;69.93;101232.91;4980282;28;101950;-47
2022/07/04 06:57:31;;;;;;;3.50;3.00;;;;;;;21.82;69.95;101229.31;4978810;28;102018;-49
2022/07/04 06:59:59;;;;;;;3.00;2.80;;;;;;;21.83;69.96;101231.75;4980314;28;102114;-49
2022/07/04 07:02:26;;;;;;;3.35;3.05;;;;;;;21.84;69.99;101235.31;4978344;28;103825;-49
2022/07/04 07:04:54;;;;;;;3.40;2.97;;;;;;;21.84;69.96;101238.09;4973745;28;101894;-47
2022/07/04 07:07:21;;;;;;;3.30;3.00;;;;;;;21.84;69.98;101235.31;4978594;28;102279;-51
2022/07/04 07:09:49;;;;;;;5.32;3.83;;;;;;;21.85;69.95;101234.16;4979534;28;103439;-49
2022/07/04 07:12:16;;;;;;;3.17;2.90;;;;;;;21.86;69.88;101240.56;4966241;28;103918;-50
2022/07/04 07:14:44;;;;;;;3.05;2.80;;;;;;;21.85;69.84;101245.25;4977704;28;102063;-47
2022/07/04 07:17:12;;;;;;;3.10;2.80;;;;;;;21.84;69.74;101241.69;4978745;28;102348;-51
2022/07/04 07:19:39;;;;;;;3.88;3.58;;;;;;;21.85;69.85;101245.25;4978970;28;102105;-46
2022/07/04 07:22:06;;;;;;;3.45;3.10;;;;;;;21.84;70.01;101238.09;4978712;28;103793;-49
2022/07/04 07:24:32;;;;;;;4.07;2.85;;;;;;;21.84;70.07;101244.44;4978436;28;102368;-49
2022/07/04 07:26:59;;;;;;;3.65;3.30;;;;;;;21.82;70.08;101248.72;4963480;28;102235;-47
2022/07/04 07:29:25;;;;;;;4.30;3.20;;;;;;;21.80;70.06;101249.03;4980421;28;102122;-47
2022/07/04 07:31:54;;;;;;;3.40;3.10;;;;;;;21.79;70.05;101252.16;4978799;28;103597;-49
2022/07/04 07:34:20;;;;;;;3.35;3.05;;;;;;;21.79;70.20;101260.47;4976486;28;102326;-49
2022/07/04 07:36:47;;;;;;;4.43;3.28;;;;;;;21.77;70.13;101271.88;4976566;28;102331;-49
2022/07/04 07:39:15;;;;;;;;;;;;;;;21.77;70.41;101271.88;4980916;28;102461;-48
2022/07/04 07:41:42;;;;;;;3.50;3.20;;;;;;;21.75;70.10;101274.19;4978616;28;103880;-48
2022/07/04 07:44:08;;;;;;;3.30;3.00;;;;;;;21.74;70.59;101277.25;4978889;28;102013;-49
2022/07/04 07:46:36;;;;;;;3.83;2.90;;;;;;;21.73;70.42;101276.47;4976765;28;101993;-47
2022/07/04 07:49:04;;;;;;;3.65;3.20;;;;;;;21.72;70.54;101277.59;4960785;28;102043;-49
2022/07/04 07:51:31;;;;;;;3.85;2.85;;;;;;;21.71;70.54;101284.31;4977583;28;103928;-49
2022/07/04 07:53:58;;;;;;;3.35;3.05;;;;;;;21.69;70.67;101281.03;4998767;28;102274;-49
2022/07/04 07:56:25;;;;;;;4.13;3.20;;;;;;;21.70;70.64;101282.66;4997162;28;102118;-47
2022/07/04 07:58:52;;;;;;;3.47;3.17;;;;;;;21.69;70.63;101292.13;4999726;28;102207;-49
2022/07/04 08:01:20;;;;;;;3.53;3.22;;;;;;;21.68;70.47;101279.41;4997621;28;104028;-49
2022/07/04 08:06:34;;;;;;;3.42;3.05;;;;;;;21.66;70.83;101276.16;4997874;28;102272;-46
2022/07/04 08:09:01;;;;;;;3.33;3.07;;;;;;;21.66;70.43;101278.13;4999875;28;102385;-46
2022/07/04 08:11:27;;;;;;;3.65;3.35;;;;;;;21.65;70.62;101280.09;4996930;28;103970;-50
2022/07/04 08:13:54;;;;;;;3.30;3.00;;;;;;;21.65;70.41;101285.63;4998521;28;102140;-47
2022/07/04 08:16:21;;;;;;;3.28;2.97;;;;;;;21.65;70.57;101285.63;4996555;28;102128;-48
2022/07/04 08:18:47;;;;;;;3.30;3.03;;;;;;;21.64;70.57;101284.00;4999741;28;102290;-48
2022/07/04 08:21:14;;;;;;;3.60;3.30;;;;;;;21.63;70.68;101287.91;4997396;28;103852;-49
2022/07/04 08:23:42;;;;;;;3.20;2.90;;;;;;;21.64;70.45;101289.56;4998473;28;102408;-47
2022/07/04 08:26:09;;;;;;;2.90;2.70;;;;;;;21.63;70.60;101289.88;4997707;28;102158;-49
2022/07/04 08:28:35;;;;;;;3.45;3.15;;;;;;;21.64;70.82;101291.47;4997879;28;102651;-49
2022/07/04 08:31:03;;;;;;;3.55;3.25;;;;;;;21.63;70.80;101298.16;4994466;28;103897;-48
2022/07/04 08:33:31;;;;;;;3.70;3.35;;;;;;;21.62;70.50;101289.06;4979195;28;102131;-49
2022/07/04 08:35:58;;;;;;;2.97;2.72;;;;;;;21.62;70.69;101291.81;4984670;28;103585;-47
2022/07/04 08:38:25;;;;;;;2.83;2.63;;;;;;;21.63;70.57;101287.91;4999152;28;102285;-49
2022/07/04 08:40:57;;;;;;;2.90;2.70;;;;;;;21.62;70.67;101280.75;4997152;28;104027;-49
2022/07/04 08:43:25;;;;;;;3.20;2.88;;;;;;;21.63;70.72;101271.28;4992798;28;102058;-50
2022/07/04 08:45:52;;;;;;;;;;;;;;;21.63;70.86;101271.28;4985206;28;102062;-48
2022/07/04 08:48:23;;;;;;;3.15;2.95;;;;;;;21.62;70.74;101277.97;4998922;28;102185;-46
2022/07/04 08:51:09;;;;;;;4.07;3.33;;;;;;;21.63;70.64;101281.56;5024318;27;102028;-50
2022/07/04 08:53:39;;;;;;;3.70;3.40;;;;;;;21.61;70.48;101281.09;4985028;28;102397;-49
2022/07/04 08:58:55;;;;;;;3.45;3.20;;;;;;;21.60;70.57;101277.47;4978803;28;102400;-48
2022/07/04 09:01:21;;;;;;;;;;;;;;;21.58;70.46;101280.59;4971946;28;102222;-49
2022/07/04 09:03:50;;;;;;;4.63;3.50;;;;;;;21.59;70.48;101273.09;4990972;28;102205;-49
2022/07/04 09:06:19;;;;;;;3.05;2.70;;;;;;;21.60;70.61;101280.25;4992946;28;103887;-47
2022/07/04 09:08:45;;;;;;;3.53;3.22;;;;;;;21.61;70.47;101279.13;4993967;28;102280;-48
2022/07/04 09:11:15;;;;;;;3.83;3.00;;;;;;;21.61;70.66;101270.81;4992074;28;102162;-49
2022/07/04 09:13:41;;;;;;;3.40;3.10;;;;;;;21.63;70.58;101273.25;4994674;28;102185;-47
2022/07/04 09:16:08;;;;;;;3.20;2.90;;;;;;;21.63;70.50;101270.47;4992923;28;103969;-50
2022/07/04 09:18:36;;;;;;;3.33;3.03;;;;;;;21.62;70.78;101269.66;4993813;28;102204;-47
2022/07/04 09:21:04;;;;;;;3.70;3.40;;;;;;;21.63;70.71;101282.38;4987966;28;102371;-49
2022/07/04 09:23:36;;;;;;;3.90;3.05;;;;;;;21.61;70.83;101279.13;4980738;28;102311;-47
2022/07/04 09:26:13;;;;;;;3.00;2.80;;;;;;;21.65;70.55;101284.81;4973135;28;108069;-50
2022/07/04 09:28:42;;;;;;;3.78;3.47;;;;;;;21.66;70.69;101289.19;4990954;28;102316;-49
2022/07/04 09:31:14;;;;;;;3.50;2.95;;;;;;;21.67;70.57;101272.25;4993460;28;102187;-50
2022/07/04 09:33:52;;;;;;;3.17;2.95;;;;;;;21.71;70.35;101277.91;4993142;28;102127;-47
2022/07/04 09:36:20;;;;;;;3.40;2.90;;;;;;;21.72;70.40;101271.25;4990230;28;103842;-51
2022/07/04 09:39:01;;;;;;;;;;;;;;;21.74;70.35;101268.94;4994381;28;102168;-50
2022/07/04 09:41:34;;;;;;;3.80;3.40;;;;;;;21.74;70.02;101266.19;4992513;28;102512;-48
2022/07/04 09:44:03;;;;;;;3.30;3.00;;;;;;;21.74;70.36;101267.00;4987750;28;102135;-49
2022/07/04 09:46:30;;;;;;;;;;;;;;;21.74;70.40;101260.63;4984679;28;104110;-48
2022/07/04 09:48:57;;;;;;;3.42;3.13;;;;;;;21.79;70.05;101254.94;4986833;28;102545;-47
2022/07/04 09:51:38;;;;;;;3.50;3.20;;;;;;;21.79;70.01;101258.50;4987080;28;101909;-49
2022/07/04 09:54:14;;;;;;;4.00;3.22;;;;;;;21.80;70.19;101257.34;4977917;28;102377;-47
2022/07/04 09:56:42;;;;;;;4.10;3.72;;;;;;;21.82;70.15;101260.63;4985877;28;103915;-47
2022/07/04 09:59:09;;;;;;;;;;;;;;;21.84;69.90;101250.00;4989086;28;102400;-47
2022/07/04 10:01:35;;;;;;;3.80;3.30;;;;;;;21.88;69.83;101238.25;4976883;28;104407;-47
2022/07/04 10:04:03;;;;;;;4.47;3.50;;;;;;;21.89;70.02;101239.84;4964692;28;102479;-50
2022/07/04 10:06:45;;;;;;;3.80;3.50;;;;;;;21.86;69.83;101241.34;4962620;28;103514;-47
2022/07/04 10:09:14;;;;;;;3.50;3.20;;;;;;;21.90;69.87;101238.72;4973604;28;102085;-50
2022/07/04 10:11:43;;;;;;;3.78;3.08;;;;;;;21.90;69.85;101236.78;4978819;28;102740;-47
2022/07/04 10:14:12;;;;;;;4.65;3.58;;;;;;;21.92;69.72;101239.19;4967276;28;102232;-48
2022/07/04 10:16:40;;;;;;;4.45;3.35;;;;;;;21.96;69.73;101237.38;4968171;28;104023;-50
2022/07/04 10:19:15;;;;;;;8.52;3.45;;;;;;;22.00;69.52;101230.03;4974750;28;102219;-49
2022/07/04 10:21:41;;;;;;;5.03;3.58;;;;;;;21.98;69.78;101233.13;4968867;28;102531;-49
2022/07/04 10:24:08;;;;;;;3.83;3.42;;;;;;;21.95;69.83;101224.66;4968599;28;102152;-49
2022/07/04 10:26:35;;;;;;;3.97;3.60;;;;;;;21.91;69.76;101226.50;4966715;28;103957;-50
2022/07/04 10:29:04;;;;;;;3.50;3.20;;;;;;;21.89;70.16;101217.69;4978260;28;102215;-50
2022/07/04 10:31:31;;;;;;;4.22;3.78;;;;;;;21.93;69.84;101224.22;4979002;28;102286;-49
2022/07/04 10:34:01;;;;;;;4.75;3.25;;;;;;;21.94;69.76;101214.75;4974125;28;102380;-47
2022/07/04 10:36:29;;;;;;;3.90;3.47;;;;;;;21.96;69.98;101212.44;4973228;28;104014;-48
2022/07/04 10:38:58;;;;;;;4.60;3.63;;;;;;;21.96;69.66;101209.66;4971981;28;102758;-49
2022/07/04 10:41:26;;;;;;;6.20;3.65;;;;;;;21.99;69.78;101220.06;4975343;28;102297;-47
2022/07/04 10:43:56;;;;;;;5.50;3.55;;;;;;;22.02;69.60;101211.09;4978025;28;102395;-47
2022/07/04 10:46:33;;;;;;;5.93;3.78;;;;;;;22.02;69.62;101205.53;4973959;28;103893;-46
2022/07/04 10:49:07;;;;;;;3.75;3.45;;;;;;;21.99;69.94;101217.31;4971052;28;102295;-47
2022/07/04 10:51:43;;;;;;;4.00;3.60;;;;;;;21.94;70.07;101209.19;4965121;28;102108;-47
2022/07/04 10:54:13;;;;;;;4.20;3.80;;;;;;;21.91;70.26;101198.78;4961641;28;102587;-49
2022/07/04 10:56:48;;;;;;;3.85;3.55;;;;;;;21.91;70.23;101201.56;4969850;28;104034;-47
2022/07/04 10:59:18;;;;;;;4.05;3.67;;;;;;;21.89;70.30;101207.44;4978156;28;102135;-49
2022/07/04 11:01:48;;;;;;;4.63;4.20;;;;;;;21.88;70.84;101207.75;4977942;28;102131;-49
2022/07/04 11:04:48;;;;;;;4.18;3.67;;;;;;;21.86;70.43;101201.75;4979798;28;102656;-47
2022/07/04 11:07:15;;;;;;;4.03;3.67;;;;;;;21.87;70.43;101197.84;4962787;28;103865;-46
2022/07/04 11:09:43;;;;;;;4.25;3.85;;;;;;;21.85;70.43;101203.69;4978076;28;102462;-49
2022/07/04 11:12:10;;;;;;;4.50;4.07;;;;;;;21.84;70.66;101197.34;4976483;28;102132;-48
2022/07/04 11:14:41;;;;;;;3.78;3.47;;;;;;;21.84;70.47;101200.13;4975106;28;102558;-47
2022/07/04 11:17:11;;;;;;;3.70;3.40;;;;;;;21.83;70.53;101198.50;4963388;28;107742;-48
2022/07/04 11:19:38;;;;;;;4.30;3.90;;;;;;;21.82;70.51;101185.81;4972004;28;103442;-48
2022/07/04 11:22:08;;;;;;;4.00;3.70;;;;;;;21.82;70.53;101191.34;4975505;28;103956;-47
2022/07/04 11:24:35;;;;;;;4.10;3.80;;;;;;;21.82;70.72;101190.53;4971163;28;102675;-47
2022/07/04 11:27:03;;;;;;;3.72;3.42;;;;;;;21.80;70.59;101188.09;4961769;28;103873;-47
2022/07/04 11:29:30;;;;;;;3.88;3.58;;;;;;;21.79;70.62;101183.69;4991360;28;101835;-49
2022/07/04 11:31:57;;;;;;;4.03;3.63;;;;;;;21.80;70.72;101182.53;4962160;28;102338;-49
2022/07/04 11:34:31;;;;;;;4.45;4.05;;;;;;;21.79;70.50;101186.47;4974480;28;102414;-47
2022/07/04 11:37:01;;;;;;;4.18;3.78;;;;;;;21.79;70.79;101182.91;4977541;28;103797;-51